createdAt,value
2022-08-22T00:01:34.057Z,99.90
2022-08-22T00:02:45.054Z,99.90
2022-08-22T00:02:46.055Z,99.90
2022-08-22T00:02:54.938Z,99.90
2022-08-22T00:02:56.261Z,99.90
2022-08-22T00:02:57.281Z,99.90
2022-08-22T00:02:58.481Z,99.90
2022-08-22T00:03:15.317Z,99.90
2022-08-22T00:04:18.133Z,99.90
2022-08-22T00:06:59.874Z,99.90
2022-08-22T00:09:39.172Z,99.90
2022-08-22T00:12:22.625Z,99.90
2022-08-22T00:15:02.931Z,99.90
2022-08-22T00:17:48.751Z,99.90
2022-08-22T00:20:28.161Z,99.90
2022-08-22T00:23:17.476Z,99.90
2022-08-22T00:26:01.443Z,99.90
2022-08-22T00:28:39.119Z,99.90
2022-08-22T00:31:23.785Z,99.90
2022-08-22T00:34:01.349Z,99.90
2022-08-22T00:36:40.514Z,99.90
2022-08-22T00:39:18.568Z,99.90
2022-08-22T00:42:36.619Z,99.90
2022-08-22T00:45:45.831Z,99.90
2022-08-22T00:48:41.667Z,99.90
2022-08-22T00:52:14.379Z,99.90
2022-08-22T00:55:07.982Z,99.90
2022-08-22T00:58:02.966Z,99.90
2022-08-22T01:00:39.931Z,99.90
2022-08-22T01:03:46.749Z,99.90
2022-08-22T01:06:29.348Z,99.90
2022-08-22T01:09:15.380Z,99.90
2022-08-22T01:12:34.162Z,99.90
2022-08-22T01:15:09.775Z,99.90
2022-08-22T01:18:04.280Z,99.90
2022-08-22T01:21:37.882Z,99.90
2022-08-22T01:31:20.756Z,99.90
2022-08-22T01:34:45.566Z,99.90
2022-08-22T01:38:01.969Z,99.90
2022-08-22T01:41:20.463Z,99.90
2022-08-22T01:44:25.787Z,99.90
2022-08-22T01:47:05.047Z,99.90
2022-08-22T01:49:47.984Z,99.90
2022-08-22T01:52:30.144Z,99.90
2022-08-22T01:55:08.000Z,99.90
2022-08-22T01:57:53.227Z,99.90
2022-08-22T02:00:35.207Z,99.90
2022-08-22T02:03:24.227Z,99.90
2022-08-22T02:06:03.961Z,99.90
2022-08-22T02:08:45.736Z,99.90
2022-08-22T02:11:39.563Z,99.90
2022-08-22T02:14:27.331Z,99.90
2022-08-22T02:17:10.403Z,99.90
2022-08-22T02:19:51.180Z,99.90
2022-08-22T02:22:33.985Z,99.90
2022-08-22T02:25:13.389Z,99.90
2022-08-22T02:27:56.681Z,99.90
2022-08-22T02:30:43.144Z,99.90
2022-08-22T02:33:27.605Z,99.90
2022-08-22T02:36:03.528Z,99.90
2022-08-22T02:38:39.835Z,99.90
2022-08-22T02:41:22.838Z,99.90
2022-08-22T02:43:58.141Z,99.90
2022-08-22T02:46:43.113Z,99.90
2022-08-22T02:49:23.537Z,99.90
2022-08-22T02:52:08.197Z,99.90
2022-08-22T02:54:48.458Z,99.90
2022-08-22T02:57:31.456Z,99.90
2022-08-22T03:00:31.313Z,99.90
2022-08-22T03:03:16.977Z,99.90
2022-08-22T03:06:01.403Z,99.90
2022-08-22T03:08:36.260Z,99.90
2022-08-22T03:11:26.952Z,99.90
2022-08-22T03:14:15.107Z,99.90
2022-08-22T03:16:53.711Z,99.90
2022-08-22T03:19:32.833Z,99.90
2022-08-22T03:22:08.386Z,99.90
2022-08-22T03:24:51.515Z,99.90
2022-08-22T03:27:33.152Z,99.90
2022-08-22T03:30:11.189Z,99.90
2022-08-22T03:32:54.575Z,99.90
2022-08-22T03:35:38.490Z,99.90
2022-08-22T03:38:21.834Z,99.90
2022-08-22T03:41:16.459Z,99.90
2022-08-22T03:47:28.304Z,99.90
2022-08-22T03:50:44.853Z,99.90
2022-08-22T03:53:54.569Z,99.90
2022-08-22T03:57:01.027Z,99.90
2022-08-22T04:00:10.663Z,99.90
2022-08-22T04:03:13.095Z,99.90
2022-08-22T04:06:27.309Z,99.90
2022-08-22T04:10:15.894Z,99.90
2022-08-22T04:16:07.996Z,99.90
2022-08-22T04:19:13.621Z,99.90
2022-08-22T04:22:08.489Z,99.90
2022-08-22T04:24:57.270Z,99.90
2022-08-22T04:27:33.975Z,99.90
2022-08-22T04:30:20.836Z,99.90
2022-08-22T04:32:59.713Z,99.90
2022-08-22T04:35:35.327Z,99.90
2022-08-22T04:38:13.393Z,99.90
2022-08-22T04:40:50.212Z,99.90
2022-08-22T04:43:26.981Z,99.90
2022-08-22T04:46:03.434Z,99.90
2022-08-22T04:48:41.325Z,99.90
2022-08-22T04:51:22.022Z,99.90
2022-08-22T04:54:25.226Z,99.90
2022-08-22T04:57:15.290Z,99.90
2022-08-22T04:59:44.970Z,99.90
2022-08-22T05:02:24.468Z,99.90
2022-08-22T05:05:04.900Z,99.90
2022-08-22T05:07:47.603Z,99.90
2022-08-22T05:10:33.523Z,99.90
2022-08-22T05:13:11.175Z,99.90
2022-08-22T05:15:45.845Z,99.90
2022-08-22T05:18:23.536Z,99.90
2022-08-22T05:20:59.814Z,99.90
2022-08-22T05:23:32.284Z,99.90
2022-08-22T05:26:06.179Z,99.90
2022-08-22T05:28:38.343Z,99.90
2022-08-22T05:31:13.259Z,99.90
2022-08-22T05:33:48.252Z,99.90
2022-08-22T05:36:27.014Z,99.90
2022-08-22T05:39:03.527Z,99.90
2022-08-22T05:41:39.929Z,99.90
2022-08-22T05:44:19.884Z,99.90
2022-08-22T05:46:57.361Z,99.90
2022-08-22T05:49:37.398Z,99.90
2022-08-22T05:52:17.890Z,99.90
2022-08-22T05:54:57.591Z,99.90
2022-08-22T05:57:34.754Z,99.90
2022-08-22T06:00:10.850Z,99.90
2022-08-22T06:02:59.045Z,99.90
2022-08-22T06:05:31.923Z,99.90
2022-08-22T06:08:09.153Z,99.90
2022-08-22T06:10:44.111Z,99.90
2022-08-22T06:13:25.487Z,99.90
2022-08-22T06:16:06.748Z,99.90
2022-08-22T06:21:18.845Z,99.90
2022-08-22T06:23:57.561Z,99.90
2022-08-22T06:26:31.111Z,99.90
2022-08-22T06:29:03.718Z,99.90
2022-08-22T06:31:37.927Z,99.90
2022-08-22T06:34:12.548Z,99.90
2022-08-22T06:36:46.060Z,99.90
2022-08-22T06:39:23.591Z,99.90
2022-08-22T06:42:01.116Z,99.90
2022-08-22T06:44:35.442Z,99.90
2022-08-22T06:47:11.914Z,99.90
2022-08-22T06:49:43.853Z,99.90
2022-08-22T06:52:20.220Z,99.90
2022-08-22T06:54:59.202Z,99.90
2022-08-22T06:57:34.239Z,99.90
2022-08-22T07:00:09.794Z,99.90
2022-08-22T07:02:44.186Z,99.90
2022-08-22T07:05:20.119Z,99.90
2022-08-22T07:10:24.739Z,99.90
2022-08-22T07:12:57.762Z,95.20
2022-08-22T07:15:36.630Z,95.70
2022-08-22T07:18:09.084Z,93.00
2022-08-22T07:20:45.273Z,97.20
2022-08-22T07:23:32.616Z,93.10
2022-08-22T07:26:22.977Z,94.90
2022-08-22T07:28:58.055Z,99.90
2022-08-22T07:31:38.238Z,94.90
2022-08-22T07:37:04.175Z,93.80
2022-08-22T07:39:39.521Z,98.70
2022-08-22T07:42:17.256Z,90.80
2022-08-22T07:45:06.944Z,91.30
2022-08-22T07:48:00.588Z,90.80
2022-08-22T07:50:33.665Z,95.10
2022-08-22T07:53:13.641Z,95.80
2022-08-22T07:55:49.427Z,93.60
2022-08-22T07:58:23.061Z,86.40
2022-08-22T08:00:54.077Z,91.80
2022-08-22T08:03:26.835Z,85.70
2022-08-22T08:05:56.469Z,85.10
2022-08-22T08:08:34.521Z,84.10
2022-08-22T08:11:07.150Z,84.00
2022-08-22T08:13:42.856Z,78.10
2022-08-22T08:16:19.334Z,85.10
2022-08-22T08:18:52.112Z,77.80
2022-08-22T08:21:31.084Z,81.10
2022-08-22T08:24:02.205Z,77.70
2022-08-22T08:26:36.652Z,77.70
2022-08-22T08:29:08.217Z,79.40
2022-08-22T08:31:43.380Z,73.50
2022-08-22T08:34:24.967Z,72.10
2022-08-22T08:36:59.384Z,70.70
2022-08-22T08:39:36.452Z,70.20
2022-08-22T08:42:55.182Z,70.30
2022-08-22T08:45:51.732Z,75.10
2022-08-22T08:48:53.737Z,75.10
2022-08-22T08:51:53.674Z,74.40
2022-08-22T08:54:56.010Z,73.30
2022-08-22T08:57:48.135Z,69.40
2022-08-22T09:00:29.080Z,74.50
2022-08-22T09:06:30.644Z,68.70
2022-08-22T09:09:17.222Z,65.60
2022-08-22T09:12:18.419Z,67.90
2022-08-22T09:15:26.040Z,65.10
2022-08-22T09:18:33.281Z,65.50
2022-08-22T09:21:30.765Z,63.50
2022-08-22T09:24:49.099Z,67.10
2022-08-22T09:27:31.771Z,67.30
2022-08-22T09:30:11.549Z,64.40
2022-08-22T09:32:55.751Z,66.80
2022-08-22T09:35:42.472Z,64.00
2022-08-22T09:41:14.547Z,68.90
2022-08-22T09:43:50.304Z,68.40
2022-08-22T09:46:31.510Z,65.00
2022-08-22T09:49:14.108Z,66.70
2022-08-22T09:52:05.287Z,63.40
2022-08-22T09:54:51.924Z,64.90
2022-08-22T09:57:35.622Z,68.90
2022-08-22T10:00:26.670Z,68.00
2022-08-22T10:03:17.095Z,70.40
2022-08-22T10:05:54.908Z,63.50
2022-08-22T10:08:45.914Z,63.30
2022-08-22T10:11:28.712Z,61.70
2022-08-22T10:14:06.011Z,61.80
2022-08-22T10:17:01.692Z,61.80
2022-08-22T10:19:40.135Z,58.50
2022-08-22T10:22:30.356Z,59.30
2022-08-22T10:25:33.173Z,57.90
2022-08-22T10:28:21.212Z,57.50
2022-08-22T10:31:09.457Z,56.10
2022-08-22T10:33:48.883Z,59.10
2022-08-22T10:36:32.374Z,55.50
2022-08-22T10:39:05.526Z,59.80
2022-08-22T10:42:00.223Z,61.00
2022-08-22T10:44:43.100Z,59.30
2022-08-22T10:47:22.008Z,56.90
2022-08-22T10:49:56.601Z,57.60
2022-08-22T10:52:33.123Z,57.20
2022-08-22T10:55:13.326Z,59.60
2022-08-22T10:58:06.791Z,58.30
2022-08-22T11:00:50.444Z,54.20
2022-08-22T11:03:32.867Z,54.70
2022-08-22T11:06:07.700Z,57.30
2022-08-22T11:09:16.173Z,56.40
2022-08-22T11:11:50.242Z,59.00
2022-08-22T11:15:12.421Z,57.70
2022-08-22T11:18:20.962Z,56.00
2022-08-22T11:21:01.740Z,58.10
2022-08-22T11:23:46.155Z,52.90
2022-08-22T11:26:41.682Z,56.60
2022-08-22T11:29:43.472Z,54.50
2022-08-22T11:32:25.725Z,56.80
2022-08-22T11:35:04.388Z,55.10
2022-08-22T11:37:54.949Z,51.00
2022-08-22T11:40:43.639Z,53.10
2022-08-22T11:43:37.243Z,53.90
2022-08-22T11:46:20.922Z,54.40
2022-08-22T11:49:25.611Z,57.10
2022-08-22T11:52:19.970Z,53.20
2022-08-22T11:55:12.463Z,56.30
2022-08-22T11:57:46.018Z,54.30
2022-08-22T12:00:34.932Z,51.80
2022-08-22T12:03:44.945Z,50.30
2022-08-22T12:06:41.766Z,51.40
2022-08-22T12:09:20.380Z,51.10
2022-08-22T12:12:17.116Z,51.80
2022-08-22T12:14:56.269Z,49.90
2022-08-22T12:18:02.328Z,48.00
2022-08-22T12:21:09.191Z,48.70
2022-08-22T12:24:19.125Z,51.80
2022-08-22T12:27:14.799Z,52.30
2022-08-22T12:30:20.772Z,47.90
2022-08-22T12:33:28.993Z,48.30
2022-08-22T12:39:17.465Z,47.10
2022-08-22T12:42:29.814Z,50.20
2022-08-22T12:45:29.048Z,49.70
2022-08-22T12:48:17.882Z,48.50
2022-08-22T12:50:56.020Z,46.50
2022-08-22T12:53:59.573Z,47.00
2022-08-22T12:56:52.139Z,50.70
2022-08-22T12:59:31.238Z,52.80
2022-08-22T13:02:04.899Z,53.40
2022-08-22T13:04:35.725Z,53.80
2022-08-22T13:07:23.738Z,53.00
2022-08-22T13:09:57.773Z,53.10
2022-08-22T13:12:35.166Z,52.60
2022-08-22T13:15:25.459Z,59.10
2022-08-22T13:18:08.736Z,56.90
2022-08-22T13:20:51.077Z,53.00
2022-08-22T13:23:26.013Z,52.40
2022-08-22T13:26:07.451Z,52.90
2022-08-22T13:28:45.949Z,54.90
2022-08-22T13:31:26.753Z,56.90
2022-08-22T13:34:02.153Z,54.90
2022-08-22T13:36:41.045Z,55.70
2022-08-22T13:39:29.655Z,55.20
2022-08-22T13:42:14.228Z,53.90
2022-08-22T13:44:50.969Z,54.50
2022-08-22T13:49:55.489Z,51.00
2022-08-22T13:52:32.295Z,50.80
2022-08-22T13:58:03.053Z,49.60
2022-08-22T14:01:28.599Z,48.20
2022-08-22T14:04:05.592Z,47.20
2022-08-22T14:06:55.597Z,47.10
2022-08-22T14:09:43.126Z,46.90
2022-08-22T14:12:19.072Z,49.60
2022-08-22T14:14:55.895Z,48.70
2022-08-22T14:17:38.445Z,51.80
2022-08-22T14:20:32.680Z,50.70
2022-08-22T14:23:08.811Z,53.00
2022-08-22T14:25:40.487Z,58.50
2022-08-22T14:28:21.657Z,51.00
2022-08-22T14:31:03.539Z,50.60
2022-08-22T14:33:40.868Z,53.20
2022-08-22T14:36:19.237Z,50.80
2022-08-22T14:38:56.164Z,53.10
2022-08-22T14:41:55.420Z,54.80
2022-08-22T14:44:30.456Z,56.50
2022-08-22T14:47:32.204Z,57.90
2022-08-22T14:49:59.428Z,53.30
2022-08-22T14:52:40.566Z,54.00
2022-08-22T14:55:17.143Z,54.60
2022-08-22T14:57:53.872Z,55.30
2022-08-22T15:00:34.941Z,56.00
2022-08-22T15:03:15.301Z,58.60
2022-08-22T15:05:51.031Z,64.60
2022-08-22T15:08:33.453Z,67.90
2022-08-22T15:11:22.116Z,70.10
2022-08-22T15:14:05.611Z,69.20
2022-08-22T15:16:38.132Z,69.80
2022-08-22T15:22:20.044Z,68.80
2022-08-22T15:25:02.126Z,71.30
2022-08-22T15:27:35.733Z,71.70
2022-08-22T15:30:20.617Z,72.50
2022-08-22T15:32:50.167Z,68.30
2022-08-22T15:35:31.492Z,70.00
2022-08-22T15:38:06.627Z,69.30
2022-08-22T15:40:42.279Z,67.80
2022-08-22T15:43:23.038Z,67.50
2022-08-22T15:46:09.895Z,65.10
2022-08-22T15:51:40.849Z,65.80
2022-08-22T15:54:24.665Z,67.90
2022-08-22T15:57:19.375Z,64.10
2022-08-22T15:59:58.888Z,67.10
2022-08-22T16:02:37.470Z,69.70
2022-08-22T16:08:05.791Z,68.80
2022-08-22T16:10:42.446Z,68.80
2022-08-22T16:13:40.014Z,69.50
2022-08-22T16:16:34.602Z,67.10
2022-08-22T16:19:28.496Z,68.20
2022-08-22T16:22:15.529Z,70.40
2022-08-22T16:25:10.282Z,69.60
2022-08-22T16:30:37.417Z,67.20
2022-08-22T16:33:08.809Z,66.10
2022-08-22T16:36:41.779Z,67.70
2022-08-22T16:39:29.670Z,67.60
2022-08-22T16:42:28.376Z,67.30
2022-08-22T16:45:13.684Z,67.70
2022-08-22T16:47:56.632Z,67.40
2022-08-22T16:50:36.453Z,68.00
2022-08-22T16:53:11.180Z,69.70
2022-08-22T16:56:13.660Z,66.90
2022-08-22T16:59:24.481Z,67.70
2022-08-22T17:02:26.089Z,68.80
2022-08-22T17:05:19.661Z,69.00
2022-08-22T17:08:12.182Z,71.10
2022-08-22T17:13:49.942Z,70.30
2022-08-22T17:16:49.763Z,68.60
2022-08-22T17:22:28.463Z,69.40
2022-08-22T17:25:21.767Z,72.50
2022-08-22T17:30:37.009Z,75.60
2022-08-22T17:33:18.403Z,75.50
2022-08-22T17:36:07.155Z,77.00
2022-08-22T17:39:26.352Z,77.60
2022-08-22T17:42:16.543Z,78.90
2022-08-22T17:45:04.483Z,82.50
2022-08-22T17:47:45.804Z,84.60
2022-08-22T17:50:26.675Z,82.10
2022-08-22T17:53:04.476Z,89.40
2022-08-22T17:55:59.909Z,90.90
2022-08-22T17:58:43.695Z,93.40
2022-08-22T18:01:38.433Z,94.00
2022-08-22T18:06:57.078Z,95.30
2022-08-22T18:09:39.920Z,96.60
2022-08-22T18:12:22.526Z,98.10
2022-08-22T18:14:59.285Z,98.90
2022-08-22T18:17:38.109Z,99.40
2022-08-22T18:20:17.038Z,99.90
2022-08-22T18:22:54.897Z,99.90
2022-08-22T18:25:44.612Z,99.70
2022-08-22T18:28:29.234Z,99.90
2022-08-22T18:33:38.530Z,99.90
2022-08-22T18:36:16.001Z,99.90
2022-08-22T18:38:56.573Z,99.90
2022-08-22T18:41:36.877Z,99.90
2022-08-22T18:46:47.181Z,99.90
2022-08-22T18:49:41.878Z,99.90
2022-08-22T18:52:38.362Z,99.90
2022-08-22T18:55:45.377Z,99.90
2022-08-22T18:58:49.433Z,99.90
2022-08-22T19:01:51.972Z,99.90
2022-08-22T19:08:02.341Z,99.90
2022-08-22T19:10:55.481Z,99.90
2022-08-22T19:17:16.294Z,99.90
2022-08-22T19:20:19.093Z,99.90
2022-08-22T19:25:28.375Z,99.90
2022-08-22T19:31:23.526Z,99.90
2022-08-22T19:34:15.848Z,99.90
2022-08-22T19:37:06.337Z,99.90
2022-08-22T19:39:55.501Z,99.90
2022-08-22T19:42:41.653Z,99.90
2022-08-22T19:45:26.564Z,99.90
2022-08-22T19:50:34.539Z,99.90
2022-08-22T19:53:35.713Z,99.90
2022-08-22T19:56:23.943Z,99.90
2022-08-22T19:59:07.366Z,99.90
2022-08-22T20:01:56.047Z,99.90
2022-08-22T20:04:47.364Z,99.90
2022-08-22T20:10:15.851Z,99.90
2022-08-22T20:13:19.103Z,99.90
2022-08-22T20:16:19.795Z,99.90
2022-08-22T20:19:20.165Z,99.90
2022-08-22T20:21:59.186Z,99.90
2022-08-22T20:24:40.006Z,99.90
2022-08-22T20:30:03.267Z,99.90
2022-08-22T20:32:38.705Z,99.90
2022-08-22T20:35:08.790Z,99.90
2022-08-22T20:38:05.949Z,99.90
2022-08-22T20:40:55.377Z,99.90
2022-08-22T20:43:34.409Z,99.90
2022-08-22T20:46:23.983Z,99.90
2022-08-22T20:48:57.046Z,99.90
2022-08-22T20:54:01.499Z,99.90
2022-08-22T20:59:31.933Z,99.90
2022-08-22T21:02:13.925Z,99.90
2022-08-22T21:04:52.711Z,99.90
2022-08-22T21:07:29.625Z,99.90
2022-08-22T21:10:23.162Z,99.90
2022-08-22T21:13:10.973Z,99.90
2022-08-22T21:15:42.923Z,99.90
2022-08-22T21:18:14.842Z,99.90
2022-08-22T21:20:43.235Z,99.90
2022-08-22T21:23:16.846Z,99.90
2022-08-22T21:25:56.691Z,99.90
2022-08-22T21:28:35.941Z,99.90
2022-08-22T21:31:14.377Z,99.90
2022-08-22T21:33:48.305Z,99.90
2022-08-22T21:36:24.386Z,99.90
2022-08-22T21:41:31.504Z,99.90
2022-08-22T21:44:28.878Z,99.90
2022-08-22T21:46:59.050Z,99.90
2022-08-22T21:49:31.083Z,99.90
2022-08-22T21:51:59.338Z,99.90
2022-08-22T21:54:40.843Z,99.90
2022-08-22T21:57:33.524Z,99.90
2022-08-22T22:00:02.200Z,99.90
2022-08-22T22:02:43.696Z,99.90
2022-08-22T22:05:17.151Z,99.90
2022-08-22T22:07:48.146Z,99.90
2022-08-22T22:10:20.192Z,99.90
2022-08-22T22:12:52.338Z,99.90
2022-08-22T22:17:51.833Z,99.90
2022-08-22T22:22:52.503Z,99.90
2022-08-22T22:25:40.704Z,99.90
2022-08-22T22:28:17.426Z,99.90
2022-08-22T22:30:50.464Z,99.90
2022-08-22T22:33:19.076Z,99.90
2022-08-22T22:35:50.516Z,99.90
2022-08-22T22:38:23.382Z,99.90
2022-08-22T22:43:21.241Z,99.90
2022-08-22T22:45:49.958Z,99.90
2022-08-22T22:48:24.271Z,99.90
2022-08-22T22:50:55.830Z,99.90
2022-08-22T22:53:28.604Z,99.90
2022-08-22T22:56:10.070Z,99.90
2022-08-22T22:58:40.489Z,99.90
2022-08-22T23:01:11.164Z,99.90
2022-08-22T23:03:39.857Z,99.90
2022-08-22T23:06:14.906Z,99.90
2022-08-22T23:11:15.325Z,99.90
2022-08-22T23:13:43.892Z,99.90
2022-08-22T23:16:16.950Z,99.90
2022-08-22T23:18:46.793Z,99.90
2022-08-22T23:21:21.052Z,99.90
2022-08-22T23:23:50.675Z,99.90
2022-08-22T23:26:19.330Z,99.90
2022-08-22T23:28:47.779Z,99.90
2022-08-22T23:31:19.689Z,99.90
2022-08-22T23:33:48.392Z,99.90
2022-08-22T23:36:21.553Z,99.90
2022-08-22T23:38:52.231Z,99.90
2022-08-22T23:41:21.902Z,99.90
2022-08-22T23:43:55.051Z,99.90
2022-08-22T23:46:26.567Z,99.90
2022-08-22T23:48:55.965Z,99.90
2022-08-22T23:51:26.859Z,99.90
2022-08-22T23:53:57.882Z,99.90
2022-08-22T23:56:30.545Z,99.90
2022-08-22T23:59:00.690Z,99.90
